Time;durP1;ratioP1;P1;durP2;ratioP2;P2;SDS_P1;SDS_P2;PMS_P1;PMS_P2;Temp;Humidity;BMP_temperature;BMP_pressure;BME280_temperature;BME280_humidity;BME280_pressure;Samples;Min_cycle;Max_cycle;Signal;HPM_P1;HPM_P2
2023/07/17 00:00:15;;;;;;;3.70;3.38;;;;;;;;;;7305030;19;140895;-72
2023/07/17 00:02:42;;;;;;;4.30;3.53;;;;;;;;;;7303111;19;142768;-72
2023/07/17 00:05:10;;;;;;;4.20;3.55;;;;;;;;;;7304801;19;140746;-72
2023/07/17 00:07:37;;;;;;;4.13;3.30;;;;;;;;;;7304067;19;140432;-73
2023/07/17 00:10:05;;;;;;;4.30;3.63;;;;;;;;;;7304237;19;141267;-73
2023/07/17 00:12:32;;;;;;;4.35;3.63;;;;;;;;;;7303088;19;142002;-73
2023/07/17 00:14:59;;;;;;;4.15;3.47;;;;;;;;;;7303931;19;140690;-73
2023/07/17 00:17:28;;;;;;;4.80;3.75;;;;;;;;;;7304554;19;140572;-73
2023/07/17 00:19:55;;;;;;;4.47;3.22;;;;;;;;;;7303192;19;141350;-73
2023/07/17 00:22:24;;;;;;;3.60;3.28;;;;;;;;;;7303405;19;141240;-73
2023/07/17 00:27:54;;;;;;;4.13;3.20;;;;;;;;;;7291523;19;144229;-74
2023/07/17 00:30:21;;;;;;;3.53;2.97;;;;;;;;;;7303736;19;141833;-74
2023/07/17 00:32:48;;;;;;;4.03;3.20;;;;;;;;;;7302647;19;141332;-74
2023/07/17 00:35:15;;;;;;;4.22;3.40;;;;;;;;;;7303419;19;140754;-74
2023/07/17 00:37:42;;;;;;;3.60;3.15;;;;;;;;;;7303660;19;140876;-73
2023/07/17 00:40:09;;;;;;;4.20;2.83;;;;;;;;;;7302750;19;141113;-74
2023/07/17 00:42:36;;;;;;;3.50;3.20;;;;;;;;;;7302700;19;141934;-74
2023/07/17 00:45:05;;;;;;;4.03;3.58;;;;;;;;;;7303483;19;140481;-74
2023/07/17 00:47:32;;;;;;;3.33;3.03;;;;;;;;;;7303208;19;140695;-73
2023/07/17 00:50:00;;;;;;;3.40;3.10;;;;;;;;;;7303302;19;140469;-73
2023/07/17 00:52:28;;;;;;;3.38;3.08;;;;;;;;;;7302375;19;141204;-73
2023/07/17 00:54:55;;;;;;;3.67;3.28;;;;;;;;;;7302734;19;140609;-73
2023/07/17 00:57:22;;;;;;;3.22;2.92;;;;;;;;;;7303114;19;140624;-73
2023/07/17 00:59:50;;;;;;;3.90;3.40;;;;;;;;;;7302180;19;141271;-73
2023/07/17 01:02:17;;;;;;;3.45;3.05;;;;;;;;;;7302722;19;141989;-73
2023/07/17 01:04:47;;;;;;;3.50;3.20;;;;;;;;;;7302473;19;140896;-73
2023/07/17 01:07:15;;;;;;;3.85;3.03;;;;;;;;;;7301771;19;140415;-74
2023/07/17 01:09:42;;;;;;;3.40;3.00;;;;;;;;;;7302668;19;140471;-74
2023/07/17 01:12:09;;;;;;;3.25;2.95;;;;;;;;;;7302222;19;141781;-74
2023/07/17 01:14:36;;;;;;;3.15;2.80;;;;;;;;;;7302320;19;140739;-74
2023/07/17 01:17:03;;;;;;;3.88;3.28;;;;;;;;;;7300804;19;140599;-76
2023/07/17 01:19:30;;;;;;;3.70;2.95;;;;;;;;;;7301546;19;141189;-74
2023/07/17 01:21:59;;;;;;;3.88;3.40;;;;;;;;;;7301136;19;142158;-74
2023/07/17 01:24:26;;;;;;;3.10;2.78;;;;;;;;;;7302372;19;141193;-74
2023/07/17 01:26:54;;;;;;;3.08;2.78;;;;;;;;;;7301120;19;140662;-74
2023/07/17 01:29:21;;;;;;;3.20;2.90;;;;;;;;;;7300765;19;142093;-74
2023/07/17 01:31:48;;;;;;;3.45;2.80;;;;;;;;;;7301309;19;140917;-74
2023/07/17 01:34:15;;;;;;;3.40;3.08;;;;;;;;;;7301898;19;140459;-74
2023/07/17 01:36:42;;;;;;;3.25;2.90;;;;;;;;;;7304176;19;140537;-73
2023/07/17 01:39:09;;;;;;;3.35;2.85;;;;;;;;;;7300487;19;140647;-74
2023/07/17 01:41:36;;;;;;;3.97;2.83;;;;;;;;;;7299547;19;142023;-73
2023/07/17 01:44:03;;;;;;;3.10;2.80;;;;;;;;;;7300805;19;140664;-73
2023/07/17 01:46:30;;;;;;;3.00;2.70;;;;;;;;;;7301616;19;140601;-74
2023/07/17 01:48:58;;;;;;;3.08;2.55;;;;;;;;;;7300576;19;140867;-74
2023/07/17 01:51:25;;;;;;;3.60;3.30;;;;;;;;;;7300580;19;141971;-74
2023/07/17 01:53:52;;;;;;;3.95;2.97;;;;;;;;;;7300446;19;140496;-76
2023/07/17 01:56:19;;;;;;;3.63;2.90;;;;;;;;;;7301125;19;140607;-73
2023/07/17 01:58:46;;;;;;;4.00;3.00;;;;;;;;;;7301280;19;140796;-73
2023/07/17 02:01:13;;;;;;;3.35;3.03;;;;;;;;;;7300446;19;141061;-73
2023/07/17 02:03:40;;;;;;;2.80;2.55;;;;;;;;;;7300508;19;140798;-73
2023/07/17 02:06:07;;;;;;;2.65;2.42;;;;;;;;;;7300991;19;141133;-73
2023/07/17 02:08:34;;;;;;;2.97;2.67;;;;;;;;;;7300051;19;141988;-73
2023/07/17 02:11:01;;;;;;;2.65;2.45;;;;;;;;;;7300297;19;142634;-71
2023/07/17 02:13:29;;;;;;;3.65;2.75;;;;;;;;;;7300530;19;140459;-72
2023/07/17 02:15:56;;;;;;;2.78;2.47;;;;;;;;;;7300617;19;140660;-73
2023/07/17 02:18:23;;;;;;;2.78;2.58;;;;;;;;;;7299992;19;142206;-73
2023/07/17 02:20:51;;;;;;;3.05;2.50;;;;;;;;;;7299341;19;141989;-73
2023/07/17 02:26:21;;;;;;;3.00;2.75;;;;;;;;;;7288075;19;143518;-74
2023/07/17 02:28:48;;;;;;;4.60;3.08;;;;;;;;;;7299422;19;140621;-74
2023/07/17 02:31:15;;;;;;;2.70;2.50;;;;;;;;;;7299614;19;140807;-74
2023/07/17 02:33:43;;;;;;;2.90;2.60;;;;;;;;;;7299960;19;140761;-74
2023/07/17 02:36:13;;;;;;;2.40;2.20;;;;;;;;;;7300161;19;140787;-74
2023/07/17 02:38:40;;;;;;;2.83;2.53;;;;;;;;;;7303076;19;141218;-74
2023/07/17 02:41:07;;;;;;;3.33;2.60;;;;;;;;;;7306983;19;142072;-74
2023/07/17 02:43:34;;;;;;;3.03;2.70;;;;;;;;;;7306516;19;140516;-74
2023/07/17 02:46:02;;;;;;;2.60;2.40;;;;;;;;;;7306913;19;140703;-73
2023/07/17 02:48:30;;;;;;;3.83;2.60;;;;;;;;;;7304918;19;141650;-73
2023/07/17 02:50:57;;;;;;;3.00;2.67;;;;;;;;;;7306563;19;142333;-74
2023/07/17 02:53:25;;;;;;;2.53;2.33;;;;;;;;;;7305686;19;140770;-74
2023/07/17 02:55:55;;;;;;;2.85;2.63;;;;;;;;;;7306652;19;140635;-74
2023/07/17 02:58:22;;;;;;;2.50;2.30;;;;;;;;;;7306440;19;141456;-74
2023/07/17 03:00:49;;;;;;;3.00;2.50;;;;;;;;;;7305716;19;141945;-74
2023/07/17 03:03:16;;;;;;;2.90;2.60;;;;;;;;;;7306710;19;140618;-74
2023/07/17 03:05:45;;;;;;;2.55;2.33;;;;;;;;;;7306312;19;140447;-75
2023/07/17 03:08:13;;;;;;;2.85;2.55;;;;;;;;;;7305223;19;141122;-73
2023/07/17 03:10:40;;;;;;;2.80;2.40;;;;;;;;;;7306230;19;140731;-74
2023/07/17 03:13:08;;;;;;;2.50;2.30;;;;;;;;;;7305471;19;140557;-74
2023/07/17 03:15:35;;;;;;;2.50;2.30;;;;;;;;;;7305891;19;140621;-74
2023/07/17 03:18:03;;;;;;;2.60;2.40;;;;;;;;;;7306561;19;140639;-73
2023/07/17 03:20:30;;;;;;;2.47;2.28;;;;;;;;;;7305375;19;142733;-73
2023/07/17 03:22:57;;;;;;;2.50;2.30;;;;;;;;;;7304962;19;140921;-74
2023/07/17 03:25:24;;;;;;;2.90;2.58;;;;;;;;;;7306102;19;140347;-73
2023/07/17 03:27:51;;;;;;;3.08;2.45;;;;;;;;;;7304732;19;140964;-74
2023/07/17 03:30:18;;;;;;;2.35;2.03;;;;;;;;;;7305686;19;141867;-74
2023/07/17 03:32:45;;;;;;;2.30;2.10;;;;;;;;;;7305484;19;140521;-74
2023/07/17 03:35:12;;;;;;;2.55;2.35;;;;;;;;;;7305082;19;140368;-74
2023/07/17 03:37:39;;;;;;;2.97;2.53;;;;;;;;;;7304519;19;140891;-75
2023/07/17 03:40:07;;;;;;;2.60;2.40;;;;;;;;;;7304795;19;142213;-74
2023/07/17 03:42:34;;;;;;;2.60;2.25;;;;;;;;;;7305070;19;140754;-73
2023/07/17 03:45:02;;;;;;;2.38;2.17;;;;;;;;;;7305080;19;140631;-74
2023/07/17 03:47:29;;;;;;;2.35;2.15;;;;;;;;;;7305033;19;141936;-74
2023/07/17 03:49:56;;;;;;;2.35;2.15;;;;;;;;;;7303316;19;141928;-75
2023/07/17 03:52:23;;;;;;;2.80;2.40;;;;;;;;;;7305313;19;140656;-76
2023/07/17 03:54:50;;;;;;;2.78;2.28;;;;;;;;;;7303967;19;140719;-74
2023/07/17 03:57:17;;;;;;;2.40;2.20;;;;;;;;;;7304358;19;141159;-74
2023/07/17 03:59:50;;;;;;;2.33;2.00;;;;;;;;;;7304705;19;142558;-74
2023/07/17 04:02:17;;;;;;;2.70;2.47;;;;;;;;;;7304797;19;140700;-74
2023/07/17 04:04:45;;;;;;;2.42;2.22;;;;;;;;;;7304924;19;140778;-74
2023/07/17 04:07:12;;;;;;;2.33;2.13;;;;;;;;;;7303601;19;141049;-74
2023/07/17 04:09:39;;;;;;;2.53;2.33;;;;;;;;;;7303001;19;142530;-75
2023/07/17 04:12:06;;;;;;;2.30;2.10;;;;;;;;;;7304398;19;140403;-75
2023/07/17 04:14:34;;;;;;;2.33;2.13;;;;;;;;;;7304408;19;140695;-72
2023/07/17 04:17:01;;;;;;;2.58;2.28;;;;;;;;;;7303478;19;141251;-74
2023/07/17 04:19:28;;;;;;;2.40;2.20;;;;;;;;;;7302821;19;141905;-75
2023/07/17 04:21:55;;;;;;;2.80;2.50;;;;;;;;;;7303619;19;140562;-75
2023/07/17 04:24:23;;;;;;;2.47;1.95;;;;;;;;;;7302810;19;140519;-75
2023/07/17 04:26:54;;;;;;;2.78;2.40;;;;;;;;;;7302058;19;140817;-75
2023/07/17 04:29:22;;;;;;;2.70;2.25;;;;;;;;;;7303432;19;141875;-75
2023/07/17 04:31:49;;;;;;;2.95;2.20;;;;;;;;;;7302855;19;140524;-76
2023/07/17 04:34:16;;;;;;;2.22;1.90;;;;;;;;;;7303451;19;140523;-76
2023/07/17 04:36:43;;;;;;;2.75;2.25;;;;;;;;;;7302905;19;140662;-78
2023/07/17 04:39:11;;;;;;;2.70;2.08;;;;;;;;;;7301822;19;141266;-78
2023/07/17 04:41:38;;;;;;;3.45;2.20;;;;;;;;;;7303366;19;140874;-77
2023/07/17 04:44:05;;;;;;;2.55;2.00;;;;;;;;;;7303542;19;140627;-78
2023/07/17 04:46:33;;;;;;;2.25;2.00;;;;;;;;;;7302614;19;140456;-77
2023/07/17 04:52:03;;;;;;;8.15;3.00;;;;;;;;;;7299785;19;140592;-79
2023/07/17 04:54:30;;;;;;;3.83;2.90;;;;;;;;;;7300981;19;140667;-80
2023/07/17 04:56:57;;;;;;;4.03;2.83;;;;;;;;;;7302715;19;141483;-76
2023/07/17 04:59:24;;;;;;;4.93;3.03;;;;;;;;;;7302145;19;141123;-76
2023/07/17 05:01:51;;;;;;;5.75;3.20;;;;;;;;;;7298714;19;141502;-77
2023/07/17 05:04:19;;;;;;;4.53;2.90;;;;;;;;;;7302649;19;140565;-77
2023/07/17 05:06:46;;;;;;;3.80;3.00;;;;;;;;;;7301953;19;140976;-76
2023/07/17 05:09:13;;;;;;;4.93;2.90;;;;;;;;;;7301692;19;142619;-76
2023/07/17 05:11:41;;;;;;;3.00;2.70;;;;;;;;;;7302195;19;140556;-77
2023/07/17 05:14:08;;;;;;;4.82;3.38;;;;;;;;;;7301683;19;140707;-77
2023/07/17 05:16:35;;;;;;;3.20;2.80;;;;;;;;;;7302048;19;141903;-76
2023/07/17 05:19:02;;;;;;;3.08;2.70;;;;;;;;;;7301601;19;141987;-75
2023/07/17 05:21:29;;;;;;;4.15;2.85;;;;;;;;;;7301525;19;140767;-75
2023/07/17 05:23:57;;;;;;;3.45;2.80;;;;;;;;;;7301417;19;140648;-75
2023/07/17 05:26:24;;;;;;;4.38;3.05;;;;;;;;;;7301586;19;141580;-75
2023/07/17 05:28:51;;;;;;;4.07;3.05;;;;;;;;;;7301929;19;140718;-75
2023/07/17 05:31:18;;;;;;;3.22;2.83;;;;;;;;;;7302045;19;140603;-75
2023/07/17 05:33:47;;;;;;;3.72;2.80;;;;;;;;;;7301441;19;140783;-75
2023/07/17 05:36:14;;;;;;;3.25;2.83;;;;;;;;;;7301591;19;140944;-75
2023/07/17 05:38:41;;;;;;;3.72;2.83;;;;;;;;;;7300391;19;141190;-75
2023/07/17 05:41:08;;;;;;;4.75;3.15;;;;;;;;;;7301169;19;140355;-75
2023/07/17 05:43:35;;;;;;;3.20;2.83;;;;;;;;;;7301356;19;140512;-75
2023/07/17 05:46:03;;;;;;;3.28;2.85;;;;;;;;;;7300564;19;141148;-75
2023/07/17 05:48:30;;;;;;;3.40;2.90;;;;;;;;;;7300277;19;142253;-75
2023/07/17 05:50:57;;;;;;;3.85;2.95;;;;;;;;;;7299355;19;140561;-75
2023/07/17 05:53:24;;;;;;;4.15;3.25;;;;;;;;;;7300337;19;140574;-75
2023/07/17 05:55:54;;;;;;;2.75;2.50;;;;;;;;;;7300114;19;140642;-75
2023/07/17 05:58:21;;;;;;;;;;;;;;;;;;7301651;19;141718;-75
2023/07/17 06:00:48;;;;;;;4.47;2.90;;;;;;;;;;7300593;19;140454;-76
2023/07/17 06:03:15;;;;;;;3.92;2.80;;;;;;;;;;7300328;19;140469;-75
2023/07/17 06:05:42;;;;;;;3.65;2.75;;;;;;;;;;7298909;19;141821;-75
2023/07/17 06:08:10;;;;;;;4.03;2.83;;;;;;;;;;7299824;19;142256;-75
2023/07/17 06:10:38;;;;;;;4.60;3.00;;;;;;;;;;7299421;19;140739;-75
2023/07/17 06:13:05;;;;;;;3.58;2.70;;;;;;;;;;7299547;19;140395;-75
2023/07/17 06:15:32;;;;;;;6.15;2.95;;;;;;;;;;7299945;19;141181;-75
2023/07/17 06:17:59;;;;;;;2.85;2.35;;;;;;;;;;7300444;19;142630;-75
2023/07/17 06:20:26;;;;;;;3.00;2.70;;;;;;;;;;7300925;19;140752;-75
2023/07/17 06:22:53;;;;;;;2.78;2.47;;;;;;;;;;7300077;19;140339;-75
2023/07/17 06:25:21;;;;;;;3.00;2.63;;;;;;;;;;7299636;19;141036;-74
2023/07/17 06:27:48;;;;;;;4.57;2.95;;;;;;;;;;7299925;19;142052;-75
2023/07/17 06:30:15;;;;;;;2.88;2.60;;;;;;;;;;7299535;19;140729;-75
2023/07/17 06:32:46;;;;;;;2.90;2.50;;;;;;;;;;7299508;19;140464;-75
2023/07/17 06:35:13;;;;;;;3.42;2.60;;;;;;;;;;7299835;19;141076;-75
2023/07/17 06:37:40;;;;;;;2.85;2.58;;;;;;;;;;7298861;19;142002;-75
2023/07/17 06:40:08;;;;;;;3.22;2.42;;;;;;;;;;7297979;19;140646;-75
2023/07/17 06:42:35;;;;;;;2.47;2.28;;;;;;;;;;7300014;19;140670;-74
2023/07/17 06:45:02;;;;;;;3.15;2.67;;;;;;;;;;7298669;19;140989;-74
2023/07/17 06:47:30;;;;;;;3.03;2.40;;;;;;;;;;7299234;19;141981;-74
2023/07/17 06:50:04;;;;;;;2.78;2.40;;;;;;;;;;7297927;19;140544;-74
2023/07/17 06:52:31;;;;;;;3.28;2.47;;;;;;;;;;7298525;19;140629;-75
2023/07/17 06:54:58;;;;;;;3.35;2.65;;;;;;;;;;7298560;19;141090;-76
2023/07/17 06:57:28;;;;;;;3.00;2.23;;;;;;;;;;7299247;19;141966;-76
2023/07/17 06:59:55;;;;;;;3.30;2.50;;;;;;;;;;7298726;19;140736;-76
2023/07/17 07:05:02;;;;;;;2.67;2.42;;;;;;;;;;7301520;19;140983;-75
2023/07/17 07:07:29;;;;;;;2.72;2.40;;;;;;;;;;7298598;19;141391;-75
2023/07/17 07:09:56;;;;;;;3.17;2.47;;;;;;;;;;7298074;19;142366;-75
2023/07/17 07:12:23;;;;;;;3.78;3.13;;;;;;;;;;7298749;19;140583;-79
2023/07/17 07:14:50;;;;;;;5.82;4.10;;;;;;;;;;7298347;19;141798;-79
2023/07/17 07:17:17;;;;;;;5.60;4.18;;;;;;;;;;7298538;19;142938;-76
2023/07/17 07:19:45;;;;;;;4.75;4.25;;;;;;;;;;7300976;19;140964;-76
2023/07/17 07:22:12;;;;;;;6.05;4.20;;;;;;;;;;7298479;19;140716;-76
2023/07/17 07:24:41;;;;;;;4.55;4.03;;;;;;;;;;7298590;19;141234;-76
2023/07/17 07:27:08;;;;;;;4.18;3.40;;;;;;;;;;7305449;19;142545;-76
2023/07/17 07:29:35;;;;;;;4.45;3.60;;;;;;;;;;7305577;19;140342;-76
2023/07/17 07:32:03;;;;;;;4.97;3.50;;;;;;;;;;7304023;19;140733;-75
2023/07/17 07:34:30;;;;;;;5.80;3.78;;;;;;;;;;7304908;19;142536;-75
2023/07/17 07:36:57;;;;;;;4.47;3.78;;;;;;;;;;7305273;19;143245;-75
2023/07/17 07:39:24;;;;;;;3.85;3.45;;;;;;;;;;7303049;19;141204;-75
2023/07/17 07:41:51;;;;;;;6.35;3.50;;;;;;;;;;7305108;19;140870;-75
2023/07/17 07:44:19;;;;;;;3.85;3.28;;;;;;;;;;7304867;19;141316;-75
2023/07/17 07:46:46;;;;;;;5.03;3.40;;;;;;;;;;7304653;19;142086;-76
2023/07/17 07:49:13;;;;;;;3.70;3.28;;;;;;;;;;7304884;19;141169;-76
2023/07/17 07:51:40;;;;;;;4.63;3.38;;;;;;;;;;7304686;19;140879;-77
2023/07/17 07:54:07;;;;;;;3.67;3.08;;;;;;;;;;7303121;19;141115;-76
2023/07/17 07:56:36;;;;;;;4.97;3.30;;;;;;;;;;7304275;19;141809;-76
2023/07/17 07:59:03;;;;;;;5.40;3.35;;;;;;;;;;7304536;19;140419;-76
2023/07/17 08:01:30;;;;;;;4.85;3.40;;;;;;;;;;7304054;19;140552;-76
2023/07/17 08:03:57;;;;;;;4.63;3.20;;;;;;;;;;7303358;19;141779;-76
2023/07/17 08:06:24;;;;;;;3.40;2.75;;;;;;;;;;7303485;19;140792;-76
2023/07/17 08:08:52;;;;;;;4.00;3.10;;;;;;;;;;7303958;19;140730;-75
2023/07/17 08:11:22;;;;;;;3.50;3.17;;;;;;;;;;7301470;19;140842;-75
2023/07/17 08:13:49;;;;;;;3.53;3.05;;;;;;;;;;7304092;19;141174;-74
2023/07/17 08:16:19;;;;;;;4.03;2.90;;;;;;;;;;7301985;19;141890;-76
2023/07/17 08:18:47;;;;;;;4.03;3.28;;;;;;;;;;7305433;19;140686;-76
2023/07/17 08:21:15;;;;;;;4.28;3.10;;;;;;;;;;7304587;19;141271;-76
2023/07/17 08:23:43;;;;;;;3.55;3.25;;;;;;;;;;7301995;19;141263;-76
2023/07/17 08:26:10;;;;;;;3.78;3.25;;;;;;;;;;7301114;19;141952;-76
2023/07/17 08:28:37;;;;;;;4.03;3.35;;;;;;;;;;7303958;19;140448;-76
2023/07/17 08:31:04;;;;;;;3.72;3.33;;;;;;;;;;7303172;19;140565;-76
2023/07/17 08:33:31;;;;;;;4.22;3.20;;;;;;;;;;7303154;19;142040;-76
2023/07/17 08:35:58;;;;;;;3.70;3.30;;;;;;;;;;7302716;19;140910;-76
2023/07/17 08:38:25;;;;;;;4.93;3.60;;;;;;;;;;7303454;19;140532;-76
2023/07/17 08:40:55;;;;;;;5.15;3.95;;;;;;;;;;7302926;19;140725;-76
2023/07/17 08:43:23;;;;;;;4.10;3.70;;;;;;;;;;7302783;19;140919;-76
2023/07/17 08:45:51;;;;;;;4.15;2.97;;;;;;;;;;7302960;19;141892;-76
2023/07/17 08:48:18;;;;;;;3.33;3.03;;;;;;;;;;7303162;19;140491;-76
2023/07/17 08:50:45;;;;;;;3.53;3.10;;;;;;;;;;7302775;19;140623;-77
2023/07/17 08:53:13;;;;;;;4.20;3.42;;;;;;;;;;7302758;19;141887;-76
2023/07/17 08:55:41;;;;;;;4.05;3.35;;;;;;;;;;7301209;19;142476;-76
2023/07/17 08:58:09;;;;;;;4.07;3.42;;;;;;;;;;7302013;19;140841;-76
2023/07/17 09:00:36;;;;;;;4.32;3.45;;;;;;;;;;7302383;19;140659;-75
2023/07/17 09:03:03;;;;;;;3.90;3.28;;;;;;;;;;7301953;19;141263;-75
2023/07/17 09:05:30;;;;;;;4.22;3.38;;;;;;;;;;7301606;19;142360;-76
2023/07/17 09:07:57;;;;;;;4.45;3.53;;;;;;;;;;7303203;19;140847;-75
2023/07/17 09:10:24;;;;;;;4.32;3.33;;;;;;;;;;7301362;19;140797;-76
2023/07/17 09:12:56;;;;;;;4.25;3.70;;;;;;;;;;7301239;19;141855;-73
2023/07/17 09:15:24;;;;;;;4.43;3.47;;;;;;;;;;7301800;19;142075;-74
2023/07/17 09:17:51;;;;;;;3.70;3.13;;;;;;;;;;7301717;19;140640;-74
2023/07/17 09:20:19;;;;;;;3.78;3.35;;;;;;;;;;7300234;19;140493;-73
2023/07/17 09:22:46;;;;;;;3.50;3.10;;;;;;;;;;7301271;19;141709;-74
2023/07/17 09:25:14;;;;;;;3.53;3.22;;;;;;;;;;7300670;19;142844;-74
2023/07/17 09:27:47;;;;;;;3.47;3.17;;;;;;;;;;7301687;19;140519;-74
2023/07/17 09:30:15;;;;;;;4.63;3.53;;;;;;;;;;7300892;19;140523;-74
2023/07/17 09:32:43;;;;;;;5.05;3.20;;;;;;;;;;7300601;19;141303;-73
2023/07/17 09:35:13;;;;;;;3.55;3.15;;;;;;;;;;7301471;19;142582;-74
2023/07/17 09:37:40;;;;;;;;;;;;;;;;;;7301936;19;140777;-73
2023/07/17 09:40:11;;;;;;;3.97;3.33;;;;;;;;;;7300861;19;140414;-74
2023/07/17 09:42:42;;;;;;;3.60;3.30;;;;;;;;;;7301264;19;141762;-73
2023/07/17 09:45:11;;;;;;;4.18;3.35;;;;;;;;;;7301215;19;141170;-73
2023/07/17 09:47:41;;;;;;;4.55;3.38;;;;;;;;;;7299312;19;141006;-75
2023/07/17 09:50:08;;;;;;;3.53;3.20;;;;;;;;;;7301149;19;140488;-75
2023/07/17 09:52:35;;;;;;;3.40;3.10;;;;;;;;;;7300662;19;141711;-74
2023/07/17 09:55:03;;;;;;;3.97;3.25;;;;;;;;;;7299566;19;140728;-75
2023/07/17 09:57:30;;;;;;;3.50;3.05;;;;;;;;;;7300778;19;140988;-74
2023/07/17 09:59:59;;;;;;;4.07;3.30;;;;;;;;;;7300579;19;140865;-74
2023/07/17 10:02:32;;;;;;;3.80;2.78;;;;;;;;;;7300243;19;141880;-75
2023/07/17 10:05:02;;;;;;;4.72;3.50;;;;;;;;;;7300263;19;142424;-73
2023/07/17 10:07:29;;;;;;;3.67;3.20;;;;;;;;;;7298777;19;140808;-75
2023/07/17 10:09:57;;;;;;;4.15;3.30;;;;;;;;;;7300148;19;140620;-75
2023/07/17 10:12:26;;;;;;;3.63;3.22;;;;;;;;;;7300096;19;141032;-75
2023/07/17 10:14:53;;;;;;;4.70;3.40;;;;;;;;;;7299112;19;141884;-74
2023/07/17 10:17:24;;;;;;;3.90;3.50;;;;;;;;;;7299778;19;140840;-73
2023/07/17 10:19:51;;;;;;;4.68;3.67;;;;;;;;;;7300074;19;140743;-74
2023/07/17 10:22:18;;;;;;;3.83;3.30;;;;;;;;;;7299194;19;141428;-74
2023/07/17 10:24:45;;;;;;;3.40;3.00;;;;;;;;;;7299817;19;142104;-74
2023/07/17 10:27:13;;;;;;;3.50;3.08;;;;;;;;;;7299035;19;140616;-74
2023/07/17 10:29:41;;;;;;;4.47;3.65;;;;;;;;;;7299771;19;140405;-74
2023/07/17 10:32:09;;;;;;;4.47;3.00;;;;;;;;;;7299465;19;141692;-75
2023/07/17 10:35:06;;;;;;;4.25;3.30;;;;;;;;;;7299446;19;142619;-75
2023/07/17 10:37:33;;;;;;;3.70;3.22;;;;;;;;;;7297387;19;140588;-74
2023/07/17 10:40:06;;;;;;;4.35;3.40;;;;;;;;;;7298194;19;140575;-75
2023/07/17 10:42:34;;;;;;;4.97;3.67;;;;;;;;;;7298474;19;141615;-74
2023/07/17 10:45:10;;;;;;;4.28;3.22;;;;;;;;;;7299316;19;140660;-74
2023/07/17 10:47:38;;;;;;;5.55;3.15;;;;;;;;;;7299091;19;140817;-74
2023/07/17 10:50:05;;;;;;;4.57;3.60;;;;;;;;;;7298531;19;140848;-74
2023/07/17 10:52:33;;;;;;;4.80;3.50;;;;;;;;;;7298870;19;141780;-74
2023/07/17 10:55:04;;;;;;;4.68;3.40;;;;;;;;;;7298893;19;143113;-73
2023/07/17 10:57:31;;;;;;;4.45;3.38;;;;;;;;;;7298796;19;140579;-74
2023/07/17 10:59:59;;;;;;;3.97;3.38;;;;;;;;;;7301808;19;140533;-74
2023/07/17 11:02:26;;;;;;;4.22;3.47;;;;;;;;;;7305803;19;140570;-74
2023/07/17 11:05:03;;;;;;;4.50;3.10;;;;;;;;;;7305663;19;141098;-74
2023/07/17 11:07:36;;;;;;;4.07;3.35;;;;;;;;;;7306207;19;140898;-74
2023/07/17 11:10:14;;;;;;;8.17;4.40;;;;;;;;;;7304409;19;140531;-75
2023/07/17 11:12:42;;;;;;;3.40;2.95;;;;;;;;;;7305226;19;141607;-75
2023/07/17 11:15:13;;;;;;;3.50;2.92;;;;;;;;;;7305886;19;140823;-76
2023/07/17 11:40:19;;;;;;;3.35;3.05;;;;;;;;;;7248370;19;145006;-74
2023/07/17 11:42:56;;;;;;;4.22;3.40;;;;;;;;;;7305159;19;140815;-74
2023/07/17 11:45:25;;;;;;;4.07;3.10;;;;;;;;;;7303164;19;140779;-74
2023/07/17 11:47:57;;;;;;;3.97;3.13;;;;;;;;;;7304836;19;140649;-75
2023/07/17 11:50:31;;;;;;;3.80;3.03;;;;;;;;;;7304573;19;140660;-74
2023/07/17 11:53:11;;;;;;;3.63;2.83;;;;;;;;;;7304926;19;140535;-74
2023/07/17 12:11:02;;;;;;;4.20;3.08;;;;;;;;;;7289919;19;140965;-74
2023/07/17 12:13:32;;;;;;;4.28;2.92;;;;;;;;;;7303431;19;140961;-75
2023/07/17 12:15:59;;;;;;;3.53;2.85;;;;;;;;;;7304024;19;140579;-74
2023/07/17 12:18:26;;;;;;;4.15;3.03;;;;;;;;;;7303657;19;140647;-72
2023/07/17 12:20:54;;;;;;;4.20;3.10;;;;;;;;;;7303135;19;141407;-71
2023/07/17 12:23:23;;;;;;;3.20;2.90;;;;;;;;;;7302825;19;142607;-72
2023/07/17 12:25:50;;;;;;;3.25;2.80;;;;;;;;;;7303469;19;140407;-72
2023/07/17 12:28:17;;;;;;;3.17;2.78;;;;;;;;;;7303384;19;140613;-73
2023/07/17 12:40:17;;;;;;;4.28;3.25;;;;;;;;;;7272596;19;144859;-73
2023/07/17 12:42:44;;;;;;;3.72;3.10;;;;;;;;;;7302113;19;140531;-73
2023/07/17 12:45:11;;;;;;;3.90;2.85;;;;;;;;;;7303016;19;140744;-75
2023/07/17 12:47:39;;;;;;;3.67;2.97;;;;;;;;;;7302322;19;140479;-74
2023/07/17 12:50:06;;;;;;;3.40;2.60;;;;;;;;;;7302734;19;140538;-75
2023/07/17 12:52:33;;;;;;;4.40;3.22;;;;;;;;;;7303142;19;141024;-74
2023/07/17 12:55:00;;;;;;;3.85;2.85;;;;;;;;;;7302532;19;141890;-74
2023/07/17 12:57:27;;;;;;;3.25;2.67;;;;;;;;;;7302019;19;141073;-74
2023/07/17 12:59:55;;;;;;;6.20;5.07;;;;;;;;;;7302682;19;140660;-74
2023/07/17 13:02:23;;;;;;;8.40;6.00;;;;;;;;;;7302766;19;142125;-74
2023/07/17 13:04:50;;;;;;;7.40;4.90;;;;;;;;;;7300887;19;142784;-73
2023/07/17 13:07:17;;;;;;;6.10;4.78;;;;;;;;;;7302392;19;140765;-74
2023/07/17 13:09:45;;;;;;;7.28;4.35;;;;;;;;;;7302550;19;140583;-74
2023/07/17 13:12:12;;;;;;;5.78;4.60;;;;;;;;;;7301858;19;141223;-74
2023/07/17 13:14:40;;;;;;;5.00;4.00;;;;;;;;;;7301946;19;141886;-74
2023/07/17 13:17:07;;;;;;;7.50;4.20;;;;;;;;;;7301624;19;140671;-77
2023/07/17 13:19:36;;;;;;;5.10;4.28;;;;;;;;;;7302419;19;140626;-77
2023/07/17 13:22:03;;;;;;;4.95;4.25;;;;;;;;;;7300501;19;141135;-76
2023/07/17 13:24:30;;;;;;;5.05;4.15;;;;;;;;;;7301467;19;141903;-76
2023/07/17 13:26:57;;;;;;;5.22;4.13;;;;;;;;;;7301332;19;140469;-76
2023/07/17 13:29:24;;;;;;;5.03;4.03;;;;;;;;;;7301314;19;140759;-74
2023/07/17 13:31:51;;;;;;;5.20;4.05;;;;;;;;;;7301263;19;140996;-75
2023/07/17 13:34:19;;;;;;;4.95;3.75;;;;;;;;;;7301302;19;142000;-75
2023/07/17 13:36:46;;;;;;;4.70;3.72;;;;;;;;;;7301726;19;140661;-75
2023/07/17 13:39:13;;;;;;;5.63;3.78;;;;;;;;;;7301211;19;140775;-75
2023/07/17 13:41:45;;;;;;;4.63;3.55;;;;;;;;;;7300399;19;141226;-76
2023/07/17 13:44:13;;;;;;;6.55;3.78;;;;;;;;;;7299608;19;142935;-74
2023/07/17 13:46:41;;;;;;;5.22;3.45;;;;;;;;;;7301545;19;140633;-74
2023/07/17 14:41:21;;;;;;;4.72;3.58;;;;;;;;;;7287830;19;144157;-75
2023/07/17 14:43:48;;;;;;;4.90;3.40;;;;;;;;;;7305771;19;140844;-75
2023/07/17 14:46:16;;;;;;;3.97;3.35;;;;;;;;;;7307409;19;141732;-75
2023/07/17 14:48:44;;;;;;;4.45;3.50;;;;;;;;;;7306270;19;140705;-74
2023/07/17 14:57:17;;;;;;;5.47;4.00;;;;;;;;;;7305178;19;140713;-73
2023/07/17 14:59:44;;;;;;;4.20;3.55;;;;;;;;;;7306392;19;140459;-74
2023/07/17 15:02:11;;;;;;;7.47;4.15;;;;;;;;;;7305863;19;140783;-74
2023/07/17 15:04:38;;;;;;;4.93;3.75;;;;;;;;;;7305920;19;142050;-74
2023/07/17 15:07:05;;;;;;;6.32;4.20;;;;;;;;;;7307153;19;140664;-73
2023/07/17 15:09:33;;;;;;;8.88;4.53;;;;;;;;;;7306239;19;140477;-73
2023/07/17 15:12:00;;;;;;;8.93;5.13;;;;;;;;;;7304677;19;141349;-75
2023/07/17 15:14:27;;;;;;;5.70;4.80;;;;;;;;;;7302957;19;141779;-75
2023/07/17 15:16:56;;;;;;;7.13;4.30;;;;;;;;;;7303060;19;140747;-74
2023/07/17 15:19:23;;;;;;;8.98;3.95;;;;;;;;;;7304672;19;140440;-73
2023/07/17 15:21:50;;;;;;;6.75;4.00;;;;;;;;;;7303461;19;141296;-75
2023/07/17 15:24:17;;;;;;;5.43;4.40;;;;;;;;;;7304070;19;142322;-74
2023/07/17 15:26:44;;;;;;;6.15;4.07;;;;;;;;;;7304180;19;140754;-73
2023/07/17 15:29:12;;;;;;;5.97;4.00;;;;;;;;;;7305388;19;140729;-74
2023/07/17 15:31:39;;;;;;;6.38;4.13;;;;;;;;;;7303542;19;142121;-74
2023/07/17 15:34:06;;;;;;;5.38;3.92;;;;;;;;;;7305486;19;141288;-74
2023/07/17 15:36:33;;;;;;;5.55;3.90;;;;;;;;;;7305317;19;140777;-74
2023/07/17 15:39:00;;;;;;;5.55;3.88;;;;;;;;;;7304807;19;140521;-74
2023/07/17 15:41:27;;;;;;;5.22;3.47;;;;;;;;;;7305136;19;141611;-73
2023/07/17 15:43:54;;;;;;;5.95;4.10;;;;;;;;;;7302606;19;142582;-74
2023/07/17 15:46:21;;;;;;;5.60;4.10;;;;;;;;;;7303633;19;140620;-74
2023/07/17 15:48:49;;;;;;;5.85;3.83;;;;;;;;;;7304930;19;140729;-74
2023/07/17 15:51:16;;;;;;;5.75;3.38;;;;;;;;;;7302939;19;141927;-74
2023/07/17 15:53:43;;;;;;;4.75;3.30;;;;;;;;;;7303128;19;141886;-74
2023/07/17 15:56:10;;;;;;;5.10;3.88;;;;;;;;;;7304533;19;140458;-76
2023/07/17 15:58:37;;;;;;;5.22;3.75;;;;;;;;;;7303782;19;140677;-75
2023/07/17 16:01:04;;;;;;;4.72;3.60;;;;;;;;;;7304502;19;141652;-74
2023/07/17 16:03:31;;;;;;;4.72;3.45;;;;;;;;;;7304377;19;142498;-74
2023/07/17 16:05:59;;;;;;;5.13;3.42;;;;;;;;;;7304424;19;140853;-74
2023/07/17 16:08:26;;;;;;;5.00;3.55;;;;;;;;;;7303509;19;140712;-74
2023/07/17 16:10:53;;;;;;;4.85;3.40;;;;;;;;;;7304206;19;140987;-74
2023/07/17 16:13:20;;;;;;;4.35;3.20;;;;;;;;;;7302817;19;142453;-73
2023/07/17 16:15:47;;;;;;;5.22;3.47;;;;;;;;;;7304421;19;140528;-73
2023/07/17 16:18:14;;;;;;;5.00;3.47;;;;;;;;;;7304250;19;140712;-74
2023/07/17 16:20:41;;;;;;;5.38;3.80;;;;;;;;;;7303431;19;141049;-74
2023/07/17 16:23:08;;;;;;;5.88;3.83;;;;;;;;;;7303750;19;141882;-73
2023/07/17 16:25:36;;;;;;;4.57;3.35;;;;;;;;;;7304190;19;140823;-72
2023/07/17 16:28:03;;;;;;;3.92;3.33;;;;;;;;;;7300891;19;140734;-74
2023/07/17 16:30:30;;;;;;;4.93;3.53;;;;;;;;;;7301583;19;141202;-74